createdAt,value
2023-01-11T00:01:15.829Z,52.00
2023-01-11T00:03:28.880Z,52.26
2023-01-11T00:05:45.758Z,52.05
2023-01-11T00:07:59.777Z,51.90
2023-01-11T00:10:14.587Z,51.95
2023-01-11T00:12:28.112Z,52.18
2023-01-11T00:14:42.608Z,51.57
2023-01-11T00:16:56.828Z,51.72
2023-01-11T00:19:09.428Z,51.71
2023-01-11T00:21:23.568Z,51.95
2023-01-11T00:23:36.572Z,52.10
2023-01-11T00:25:50.571Z,52.21
2023-01-11T00:28:03.235Z,52.01
2023-01-11T00:30:19.424Z,52.48
2023-01-11T00:32:33.370Z,52.12
2023-01-11T00:34:47.255Z,52.28
2023-01-11T00:37:01.275Z,52.39
2023-01-11T00:39:14.113Z,52.79
2023-01-11T00:41:44.923Z,53.65
2023-01-11T00:44:15.364Z,53.52
2023-01-11T00:46:44.756Z,53.83
2023-01-11T00:48:57.670Z,54.23
2023-01-11T00:51:11.734Z,54.20
2023-01-11T00:53:25.916Z,54.37
2023-01-11T00:55:39.825Z,54.54
2023-01-11T00:57:54.850Z,54.13
2023-01-11T01:00:10.115Z,54.30
2023-01-11T01:02:23.977Z,54.55
2023-01-11T01:04:37.885Z,54.55
2023-01-11T01:06:51.871Z,54.92
2023-01-11T01:09:06.203Z,55.20
2023-01-11T01:11:20.471Z,55.13
2023-01-11T01:14:02.542Z,55.09
2023-01-11T01:16:16.838Z,55.72
2023-01-11T01:18:30.026Z,55.54
2023-01-11T01:20:43.294Z,55.79
2023-01-11T01:23:06.830Z,55.89
2023-01-11T01:25:20.827Z,55.86
2023-01-11T01:27:34.005Z,56.30
2023-01-11T01:29:48.067Z,56.36
2023-01-11T01:32:01.357Z,56.61
2023-01-11T01:34:15.171Z,56.55
2023-01-11T01:36:29.396Z,56.71
2023-01-11T01:38:43.378Z,56.74
2023-01-11T01:40:57.946Z,56.74
2023-01-11T01:43:14.110Z,56.77
2023-01-11T01:45:30.335Z,56.76
2023-01-11T01:47:55.252Z,56.96
2023-01-11T01:50:13.868Z,56.94
2023-01-11T01:52:32.152Z,56.96
2023-01-11T01:54:50.548Z,57.18
2023-01-11T01:57:09.938Z,57.23
2023-01-11T01:59:25.806Z,57.24
2023-01-11T02:01:51.622Z,57.39
2023-01-11T02:04:07.637Z,57.72
2023-01-11T02:06:23.082Z,57.67
2023-01-11T02:08:42.542Z,57.84
2023-01-11T02:10:57.135Z,57.95
2023-01-11T02:13:16.200Z,58.36
2023-01-11T02:15:32.489Z,58.33
2023-01-11T02:17:45.907Z,58.58
2023-01-11T02:20:03.980Z,58.64
2023-01-11T02:22:40.809Z,58.88
2023-01-11T02:25:06.046Z,58.99
2023-01-11T02:27:36.731Z,59.00
2023-01-11T02:30:01.864Z,59.23
2023-01-11T02:32:27.068Z,59.23
2023-01-11T02:34:50.741Z,59.34
2023-01-11T02:37:15.701Z,59.33
2023-01-11T02:39:34.707Z,59.31
2023-01-11T02:42:10.521Z,59.20
2023-01-11T02:44:44.159Z,59.31
2023-01-11T02:47:03.506Z,59.32
2023-01-11T02:49:24.669Z,59.25
2023-01-11T02:51:45.915Z,59.32
2023-01-11T02:54:04.587Z,59.33
2023-01-11T02:56:21.942Z,59.58
2023-01-11T02:58:38.630Z,59.98
2023-01-11T03:00:53.864Z,60.10
2023-01-11T03:03:18.970Z,60.49
2023-01-11T03:05:31.684Z,60.64
2023-01-11T03:07:57.412Z,60.85
2023-01-11T03:10:21.176Z,61.02
2023-01-11T03:12:56.001Z,61.22
2023-01-11T03:15:20.717Z,61.46
2023-01-11T03:17:46.863Z,61.65
2023-01-11T03:20:04.936Z,61.73
2023-01-11T03:22:27.432Z,61.97
2023-01-11T03:24:49.271Z,62.25
2023-01-11T03:27:19.950Z,62.44
2023-01-11T03:29:39.587Z,62.56
2023-01-11T03:31:58.917Z,62.66
2023-01-11T03:34:22.280Z,62.97
2023-01-11T03:36:40.679Z,63.34
2023-01-11T03:38:59.193Z,63.48
2023-01-11T03:41:17.177Z,63.35
2023-01-11T03:43:32.101Z,63.40
2023-01-11T03:45:52.099Z,63.68
2023-01-11T03:48:08.591Z,63.91
2023-01-11T03:50:22.767Z,64.08
2023-01-11T03:52:45.254Z,64.13
2023-01-11T03:55:01.913Z,64.10
2023-01-11T03:57:21.925Z,64.29
2023-01-11T03:59:36.981Z,64.44
2023-01-11T04:01:51.895Z,64.48
2023-01-11T04:04:05.749Z,64.55
2023-01-11T04:06:20.719Z,64.67
2023-01-11T04:08:34.252Z,64.95
2023-01-11T04:10:49.073Z,65.37
2023-01-11T04:13:02.211Z,65.39
2023-01-11T04:15:16.943Z,65.76
2023-01-11T04:17:31.292Z,66.11
2023-01-11T04:19:46.631Z,66.00
2023-01-11T04:21:59.765Z,65.99
2023-01-11T04:24:14.713Z,66.15
2023-01-11T04:26:29.242Z,66.60
2023-01-11T04:28:42.305Z,66.54
2023-01-11T04:30:57.785Z,66.67
2023-01-11T04:33:14.676Z,66.64
2023-01-11T04:35:28.649Z,66.82
2023-01-11T04:37:42.110Z,66.81
2023-01-11T04:39:55.354Z,66.91
2023-01-11T04:42:21.837Z,66.94
2023-01-11T04:44:43.194Z,66.98
2023-01-11T04:46:56.228Z,67.14
2023-01-11T04:49:09.660Z,67.21
2023-01-11T04:51:24.006Z,67.36
2023-01-11T04:53:37.633Z,67.46
2023-01-11T04:55:53.732Z,67.57
2023-01-11T04:58:07.137Z,68.07
2023-01-11T05:00:23.411Z,68.49
2023-01-11T05:02:38.632Z,68.83
2023-01-11T05:04:52.900Z,69.18
2023-01-11T05:07:06.021Z,69.48
2023-01-11T05:09:21.103Z,69.31
2023-01-11T05:11:34.558Z,69.49
2023-01-11T05:13:47.947Z,69.99
2023-01-11T05:16:03.497Z,70.31
2023-01-11T05:18:17.208Z,70.69
2023-01-11T05:20:30.268Z,71.18
2023-01-11T05:22:43.282Z,71.07
2023-01-11T05:24:56.456Z,71.31
2023-01-11T05:27:10.269Z,71.33
2023-01-11T05:29:23.739Z,71.70
2023-01-11T05:31:37.677Z,71.88
2023-01-11T05:33:51.888Z,72.10
2023-01-11T05:36:11.043Z,72.62
2023-01-11T05:38:24.131Z,72.46
2023-01-11T05:40:37.229Z,72.36
2023-01-11T05:42:51.665Z,72.42
2023-01-11T05:45:21.889Z,72.33
2023-01-11T05:47:36.219Z,72.90
2023-01-11T05:49:49.380Z,73.21
2023-01-11T05:52:03.497Z,73.54
2023-01-11T05:54:18.403Z,73.25
2023-01-11T05:56:31.689Z,73.09
2023-01-11T05:58:44.748Z,72.83
2023-01-11T06:00:59.309Z,72.95
2023-01-11T06:03:12.655Z,72.94
2023-01-11T06:05:27.987Z,72.98
2023-01-11T06:07:41.146Z,73.35
2023-01-11T06:09:53.644Z,73.68
2023-01-11T06:12:06.163Z,73.78
2023-01-11T06:14:20.086Z,73.81
2023-01-11T06:16:32.789Z,73.78
2023-01-11T06:18:47.519Z,73.66
2023-01-11T06:21:02.210Z,73.86
2023-01-11T06:23:15.547Z,74.05
2023-01-11T06:25:32.033Z,74.18
2023-01-11T06:27:45.907Z,74.56
2023-01-11T06:30:00.105Z,74.61
2023-01-11T06:32:13.449Z,74.68
2023-01-11T06:34:26.885Z,74.40
2023-01-11T06:36:40.933Z,74.78
2023-01-11T06:38:57.450Z,75.01
2023-01-11T06:41:11.549Z,75.55
2023-01-11T06:43:25.272Z,75.72
2023-01-11T06:45:39.325Z,75.79
2023-01-11T06:47:53.468Z,76.19
2023-01-11T06:50:07.843Z,76.31
2023-01-11T06:52:20.327Z,76.27
2023-01-11T06:54:41.284Z,76.18
2023-01-11T06:56:57.427Z,76.20
2023-01-11T06:59:09.935Z,76.32
2023-01-11T07:01:23.381Z,76.46
2023-01-11T07:03:38.030Z,76.21
2023-01-11T07:05:51.398Z,77.14
2023-01-11T07:08:06.202Z,76.62
2023-01-11T07:10:23.734Z,76.68
2023-01-11T07:12:37.220Z,76.54
2023-01-11T07:14:51.449Z,76.70
2023-01-11T07:17:11.091Z,76.51
2023-01-11T07:19:33.458Z,76.73
2023-01-11T07:21:47.063Z,76.79
2023-01-11T07:24:18.835Z,76.77
2023-01-11T07:29:26.671Z,77.15
2023-01-11T07:31:45.360Z,77.87
2023-01-11T07:33:58.495Z,78.08
2023-01-11T07:36:13.580Z,78.40
2023-01-11T07:38:30.308Z,78.12
2023-01-11T07:40:44.958Z,78.25
2023-01-11T07:43:15.829Z,78.43
2023-01-11T07:45:37.344Z,78.42
2023-01-11T07:47:58.077Z,78.59
2023-01-11T07:50:12.006Z,78.54
2023-01-11T07:52:25.276Z,78.61
2023-01-11T07:54:38.341Z,79.33
2023-01-11T07:56:51.884Z,79.01
2023-01-11T07:59:06.390Z,79.17
2023-01-11T08:01:21.270Z,79.74
2023-01-11T08:03:34.621Z,80.02
2023-01-11T08:05:52.156Z,80.50
2023-01-11T08:08:06.765Z,80.32
2023-01-11T08:10:20.913Z,80.33
2023-01-11T08:12:52.108Z,80.08
2023-01-11T08:15:06.538Z,79.82
2023-01-11T08:17:20.958Z,79.96
2023-01-11T08:19:35.606Z,79.98
2023-01-11T08:21:50.346Z,79.55
2023-01-11T08:24:03.302Z,79.82
2023-01-11T08:26:18.342Z,79.81
2023-01-11T08:28:31.706Z,80.37
2023-01-11T08:30:47.237Z,80.25
2023-01-11T08:33:00.323Z,80.26
2023-01-11T08:35:15.215Z,80.40
2023-01-11T08:37:28.562Z,80.25
2023-01-11T08:39:41.617Z,80.19
2023-01-11T08:41:56.778Z,80.26
2023-01-11T08:44:11.712Z,80.20
2023-01-11T08:46:24.890Z,79.97
2023-01-11T08:48:38.190Z,80.01
2023-01-11T08:50:51.628Z,79.90
2023-01-11T08:53:12.313Z,79.97
2023-01-11T08:55:26.527Z,80.09
2023-01-11T08:57:40.478Z,80.06
2023-01-11T08:59:55.936Z,79.81
2023-01-11T09:02:10.563Z,79.59
2023-01-11T09:04:26.050Z,79.79
2023-01-11T09:06:38.801Z,79.77
2023-01-11T09:08:52.206Z,79.38
2023-01-11T09:11:25.935Z,79.82
2023-01-11T09:13:41.189Z,80.50
2023-01-11T09:15:57.881Z,80.47
2023-01-11T09:18:11.482Z,80.09
2023-01-11T09:20:26.979Z,80.10
2023-01-11T09:22:40.781Z,80.30
2023-01-11T09:24:53.972Z,80.30
2023-01-11T09:27:07.756Z,80.41
2023-01-11T09:29:21.394Z,80.30
2023-01-11T09:31:34.619Z,80.77
2023-01-11T09:33:47.942Z,80.78
2023-01-11T09:36:03.907Z,80.69
2023-01-11T09:38:17.192Z,80.82
2023-01-11T09:40:44.177Z,80.93
2023-01-11T09:43:02.202Z,80.87
2023-01-11T09:45:21.752Z,81.40
2023-01-11T09:47:41.915Z,81.16
2023-01-11T09:49:59.558Z,81.25
2023-01-11T09:52:26.227Z,81.05
2023-01-11T09:54:39.413Z,81.11
2023-01-11T09:57:01.532Z,81.14
2023-01-11T09:59:26.006Z,80.79
2023-01-11T10:01:43.455Z,80.44
2023-01-11T10:04:38.331Z,80.42
2023-01-11T10:07:02.192Z,80.49
2023-01-11T10:18:28.856Z,80.11
2023-01-11T10:18:31.358Z,79.81
2023-01-11T10:20:36.085Z,79.55
2023-01-11T10:22:52.543Z,79.57
2023-01-11T10:25:11.999Z,79.49
2023-01-11T10:27:37.468Z,79.33
2023-01-11T10:30:08.405Z,79.26
2023-01-11T10:32:47.611Z,79.35
2023-01-11T10:35:25.370Z,79.34
2023-01-11T10:37:51.091Z,79.21
2023-01-11T10:40:23.996Z,79.40
2023-01-11T10:42:45.241Z,79.31
2023-01-11T10:45:05.710Z,79.25
2023-01-11T10:47:22.933Z,79.30
2023-01-11T10:49:56.544Z,79.11
2023-01-11T10:52:18.111Z,79.39
2023-01-11T10:54:36.674Z,79.44
2023-01-11T10:57:05.190Z,79.50
2023-01-11T10:59:37.663Z,79.22
2023-01-11T11:02:02.598Z,79.32
2023-01-11T11:04:42.684Z,79.37
2023-01-11T11:07:08.623Z,79.19
2023-01-11T11:09:30.462Z,79.17
2023-01-11T11:11:54.155Z,79.08
2023-01-11T11:14:14.001Z,78.62
2023-01-11T11:16:44.056Z,78.71
2023-01-11T11:19:00.936Z,78.74
2023-01-11T11:21:24.360Z,78.60
2023-01-11T11:23:40.145Z,78.53
2023-01-11T11:25:58.844Z,78.63
2023-01-11T11:28:27.263Z,78.76
2023-01-11T11:30:41.447Z,78.76
2023-01-11T11:33:01.279Z,78.75
2023-01-11T11:35:36.367Z,78.72
2023-01-11T11:37:50.754Z,78.81
2023-01-11T11:40:04.513Z,78.61
2023-01-11T11:42:22.315Z,78.42
2023-01-11T11:44:36.319Z,78.50
2023-01-11T11:47:03.329Z,78.28
2023-01-11T11:49:22.515Z,78.50
2023-01-11T11:51:36.906Z,78.34
2023-01-11T11:53:56.857Z,78.19
2023-01-11T11:56:21.185Z,78.39
2023-01-11T11:58:35.601Z,78.30
2023-01-11T12:00:54.954Z,78.13
2023-01-11T12:03:15.708Z,78.24
2023-01-11T12:05:30.396Z,78.04
2023-01-11T12:07:54.703Z,78.37
2023-01-11T12:10:16.037Z,78.18
2023-01-11T12:12:30.399Z,78.32
2023-01-11T12:14:44.188Z,77.99
2023-01-11T12:16:58.268Z,78.13
2023-01-11T12:19:32.476Z,78.11
2023-01-11T12:21:47.115Z,77.95
2023-01-11T12:24:19.539Z,78.00
2023-01-11T12:26:30.983Z,77.99
2023-01-11T12:29:25.368Z,77.99
2023-01-11T12:31:47.752Z,77.90
2023-01-11T12:34:10.542Z,77.94
2023-01-11T12:36:35.558Z,77.78
2023-01-11T12:38:59.163Z,77.96
2023-01-11T12:41:48.632Z,77.75
2023-01-11T12:44:08.367Z,77.69
2023-01-11T12:46:32.023Z,77.82
2023-01-11T12:49:08.858Z,77.40
2023-01-11T12:51:40.469Z,77.57
2023-01-11T12:54:07.547Z,77.52
2023-01-11T12:56:46.471Z,77.46
2023-01-11T12:59:04.474Z,77.61
2023-01-11T13:01:32.571Z,77.75
2023-01-11T13:04:12.327Z,77.48
2023-01-11T13:06:35.551Z,77.36
2023-01-11T13:09:01.797Z,77.49
2023-01-11T13:11:36.102Z,77.30
2023-01-11T13:13:56.188Z,77.42
2023-01-11T13:16:18.862Z,77.16
2023-01-11T13:18:43.562Z,77.31
2023-01-11T13:21:02.575Z,77.38
2023-01-11T13:23:20.744Z,77.08
2023-01-11T13:25:37.903Z,77.27
2023-01-11T13:27:52.648Z,77.51
2023-01-11T13:30:08.362Z,77.44
2023-01-11T13:32:25.497Z,77.39
2023-01-11T13:34:43.323Z,77.38
2023-01-11T13:37:00.967Z,77.35
2023-01-11T13:39:24.192Z,77.54
2023-01-11T13:41:48.481Z,77.70
2023-01-11T13:44:09.008Z,77.59
2023-01-11T13:46:39.831Z,77.53
2023-01-11T13:48:59.235Z,77.16
2023-01-11T13:51:24.211Z,77.22
2023-01-11T13:53:45.645Z,76.97
2023-01-11T13:56:07.440Z,76.86
2023-01-11T13:58:26.517Z,76.70
2023-01-11T14:00:47.226Z,76.58
2023-01-11T14:03:03.153Z,76.55
2023-01-11T14:05:22.433Z,76.47
2023-01-11T14:07:47.620Z,76.62
2023-01-11T14:10:28.248Z,76.49
2023-01-11T14:12:57.297Z,76.73
2023-01-11T14:15:29.750Z,76.43
2023-01-11T14:17:49.864Z,76.26
2023-01-11T14:20:15.125Z,76.02
2023-01-11T14:22:37.208Z,75.83
2023-01-11T14:24:59.936Z,75.84
2023-01-11T14:27:47.538Z,75.84
2023-01-11T14:30:14.366Z,75.67
2023-01-11T14:32:50.602Z,75.74
2023-01-11T14:35:47.456Z,75.47
2023-01-11T14:38:46.568Z,75.61
2023-01-11T14:41:19.533Z,75.52
2023-01-11T14:43:53.247Z,75.54
2023-01-11T14:46:47.512Z,75.41
2023-01-11T14:49:10.800Z,75.33
2023-01-11T14:51:35.500Z,75.18
2023-01-11T14:53:53.041Z,75.45
2023-01-11T14:56:05.938Z,75.04
2023-01-11T14:58:31.807Z,75.24
2023-01-11T15:01:12.920Z,74.92
2023-01-11T15:03:52.082Z,75.13
2023-01-11T15:06:15.742Z,74.93
2023-01-11T15:08:31.159Z,74.80
2023-01-11T15:10:55.462Z,74.91
2023-01-11T15:13:15.569Z,74.84
2023-01-11T15:15:53.199Z,75.00
2023-01-11T15:18:21.639Z,74.81
2023-01-11T15:20:36.510Z,74.81
2023-01-11T15:22:59.064Z,74.88
2023-01-11T15:25:28.663Z,75.04
2023-01-11T15:27:42.861Z,74.95
2023-01-11T15:30:00.341Z,74.87
2023-01-11T15:32:28.403Z,74.94
2023-01-11T15:34:52.146Z,75.00
2023-01-11T15:37:39.252Z,75.09
2023-01-11T15:40:00.499Z,74.95
2023-01-11T15:42:47.871Z,74.92
2023-01-11T15:45:27.623Z,74.81
2023-01-11T15:48:04.345Z,74.90
2023-01-11T15:51:13.274Z,74.95
2023-01-11T15:54:04.725Z,74.91
2023-01-11T15:56:52.340Z,74.81
2023-01-11T15:59:23.660Z,74.75
2023-01-11T16:01:43.738Z,74.86
2023-01-11T16:04:15.538Z,74.91
2023-01-11T16:06:46.828Z,74.56
2023-01-11T16:09:08.091Z,74.68
2023-01-11T16:11:31.334Z,74.61
2023-01-11T16:14:08.102Z,74.24
2023-01-11T16:16:27.920Z,74.34
2023-01-11T16:18:46.474Z,74.34
2023-01-11T16:21:09.431Z,74.50
2023-01-11T16:23:24.901Z,74.30
2023-01-11T16:25:41.472Z,74.43
2023-01-11T16:27:58.862Z,74.02
2023-01-11T16:30:18.111Z,74.13
2023-01-11T16:32:35.326Z,73.87
2023-01-11T16:34:53.094Z,73.66
2023-01-11T16:37:21.830Z,73.72
2023-01-11T16:39:36.379Z,73.48
2023-01-11T16:41:55.538Z,73.13
2023-01-11T16:44:12.241Z,73.14
2023-01-11T16:47:12.361Z,73.09
2023-01-11T16:49:27.064Z,72.35
2023-01-11T16:51:44.036Z,71.78
2023-01-11T16:54:03.780Z,71.34
2023-01-11T16:56:23.580Z,70.13
2023-01-11T16:58:39.838Z,69.10
2023-01-11T17:01:02.793Z,67.39
2023-01-11T17:03:27.435Z,66.75
2023-01-11T17:05:42.363Z,64.19
2023-01-11T17:07:55.566Z,63.01
2023-01-11T17:10:24.665Z,61.69
2023-01-11T17:12:37.893Z,61.11
2023-01-11T17:15:18.746Z,61.77
2023-01-11T17:17:39.359Z,60.91
2023-01-11T17:19:55.439Z,59.46
2023-01-11T17:22:11.968Z,58.82
2023-01-11T17:24:28.147Z,59.37
2023-01-11T17:26:47.711Z,59.18
2023-01-11T17:29:03.781Z,59.93
2023-01-11T17:31:27.340Z,60.33
2023-01-11T17:33:41.745Z,60.11
2023-01-11T17:35:55.589Z,59.26
2023-01-11T17:38:13.225Z,59.70
2023-01-11T17:40:32.348Z,59.32
2023-01-11T17:43:01.953Z,59.24
2023-01-11T17:45:25.397Z,58.22
2023-01-11T17:47:41.052Z,58.41
2023-01-11T17:49:57.687Z,58.71
2023-01-11T17:52:26.737Z,58.88
2023-01-11T17:54:40.233Z,58.75
2023-01-11T17:57:01.547Z,58.01
2023-01-11T17:59:26.241Z,57.26
2023-01-11T18:01:39.489Z,57.35
2023-01-11T18:03:54.720Z,56.86
2023-01-11T18:06:16.618Z,56.49
2023-01-11T18:08:29.870Z,57.55
2023-01-11T18:10:51.229Z,58.21
2023-01-11T18:13:05.534Z,58.61
2023-01-11T18:15:31.060Z,58.35
2023-01-11T18:17:45.767Z,58.72
2023-01-11T18:19:58.945Z,59.27
2023-01-11T18:22:32.601Z,59.87
2023-01-11T18:24:58.784Z,60.17
2023-01-11T18:27:55.445Z,60.55
2023-01-11T18:30:31.971Z,60.92
2023-01-11T18:32:48.420Z,61.17
2023-01-11T18:35:05.376Z,61.64
2023-01-11T18:37:18.735Z,61.57
2023-01-11T18:39:32.748Z,61.89
2023-01-11T18:42:14.529Z,61.76
2023-01-11T18:44:29.495Z,61.02
2023-01-11T18:46:43.652Z,60.60
2023-01-11T18:48:57.063Z,59.33
2023-01-11T18:51:13.850Z,59.41
2023-01-11T18:53:29.857Z,58.57
2023-01-11T18:55:43.443Z,58.77
2023-01-11T18:57:58.307Z,58.28
2023-01-11T19:00:17.856Z,58.68
2023-01-11T19:02:34.684Z,58.98
2023-01-11T19:04:48.953Z,58.99
2023-01-11T19:07:02.540Z,58.19
2023-01-11T19:09:15.943Z,57.20
2023-01-11T19:11:32.055Z,57.06
2023-01-11T19:13:46.829Z,56.15
2023-01-11T19:16:00.660Z,56.60
2023-01-11T19:18:13.371Z,56.51
2023-01-11T19:20:26.037Z,56.38
2023-01-11T19:22:39.958Z,56.59
2023-01-11T19:24:52.626Z,57.09
2023-01-11T19:27:07.019Z,57.37
2023-01-11T19:29:21.336Z,57.45
2023-01-11T19:31:34.600Z,57.76
2023-01-11T19:33:49.367Z,57.60
2023-01-11T19:36:07.701Z,57.52
2023-01-11T19:38:21.894Z,57.83
2023-01-11T19:40:35.382Z,57.56
2023-01-11T19:42:49.435Z,57.72
2023-01-11T19:45:02.832Z,58.00
2023-01-11T19:47:17.128Z,58.26
2023-01-11T19:49:31.058Z,58.29
2023-01-11T19:51:44.625Z,58.45
2023-01-11T19:53:58.292Z,58.20
2023-01-11T19:56:14.181Z,58.23
2023-01-11T19:58:28.025Z,58.59
2023-01-11T20:00:41.765Z,58.31
2023-01-11T20:02:55.894Z,58.78
2023-01-11T20:05:10.157Z,59.00
2023-01-11T20:07:24.099Z,59.33
2023-01-11T20:09:39.811Z,59.36
2023-01-11T20:11:54.417Z,59.39
2023-01-11T20:14:09.008Z,59.89
2023-01-11T20:16:25.499Z,59.98
2023-01-11T20:18:39.366Z,59.70
2023-01-11T20:21:00.365Z,59.82
2023-01-11T20:23:13.586Z,60.18
2023-01-11T20:25:27.435Z,60.16
2023-01-11T20:27:40.625Z,60.35
2023-01-11T20:29:54.342Z,60.63
2023-01-11T20:32:31.207Z,60.62
2023-01-11T20:34:42.800Z,60.86
2023-01-11T20:36:56.795Z,61.22
2023-01-11T20:39:10.535Z,60.86
2023-01-11T20:41:38.449Z,60.97
2023-01-11T20:43:51.213Z,61.18
2023-01-11T20:46:04.941Z,61.57
2023-01-11T20:48:18.293Z,61.59
2023-01-11T20:50:31.615Z,61.54
2023-01-11T20:52:46.165Z,61.51
2023-01-11T20:54:59.853Z,61.72
2023-01-11T20:57:13.908Z,61.58
2023-01-11T20:59:26.738Z,61.54
2023-01-11T21:01:41.758Z,61.64
2023-01-11T21:03:57.628Z,61.48
2023-01-11T21:06:14.932Z,61.85
2023-01-11T21:08:28.071Z,61.91
2023-01-11T21:10:40.984Z,61.63
2023-01-11T21:12:57.693Z,61.55
2023-01-11T21:15:12.536Z,61.74
2023-01-11T21:17:27.650Z,61.60
2023-01-11T21:19:40.700Z,61.97
2023-01-11T21:21:54.650Z,61.83
2023-01-11T21:24:09.207Z,61.99
2023-01-11T21:26:23.594Z,61.99
2023-01-11T21:28:36.527Z,61.75
2023-01-11T21:30:50.426Z,61.44
2023-01-11T21:33:04.205Z,61.47
2023-01-11T21:35:17.678Z,61.52
2023-01-11T21:37:31.840Z,60.71
2023-01-11T21:39:45.554Z,60.78
2023-01-11T21:41:59.866Z,60.96
2023-01-11T21:44:14.470Z,60.52
2023-01-11T21:46:27.898Z,60.72
2023-01-11T21:48:41.223Z,61.21
2023-01-11T21:50:54.900Z,61.29
2023-01-11T21:53:08.146Z,60.80
2023-01-11T21:55:21.821Z,61.02
2023-01-11T21:57:35.225Z,61.39
2023-01-11T21:59:50.421Z,61.26
2023-01-11T22:02:04.544Z,61.53
2023-01-11T22:04:19.105Z,61.44
2023-01-11T22:06:32.040Z,61.58
2023-01-11T22:08:46.060Z,61.54
2023-01-11T22:11:04.514Z,61.91
2023-01-11T22:13:18.238Z,61.48
2023-01-11T22:15:34.329Z,61.47
2023-01-11T22:17:47.538Z,61.68
2023-01-11T22:20:01.207Z,61.67
2023-01-11T22:22:14.723Z,61.80
2023-01-11T22:24:29.969Z,61.92
2023-01-11T22:26:43.496Z,62.38
2023-01-11T22:29:24.094Z,62.01
2023-01-11T22:31:39.440Z,62.14
2023-01-11T22:33:52.705Z,62.37
2023-01-11T22:36:06.407Z,62.38
2023-01-11T22:38:19.863Z,62.26
2023-01-11T22:40:33.759Z,62.19
2023-01-11T22:42:47.582Z,62.07
2023-01-11T22:45:00.966Z,62.24
2023-01-11T22:47:15.608Z,61.92
2023-01-11T22:49:29.985Z,61.49
2023-01-11T22:51:47.279Z,61.76
2023-01-11T22:54:01.439Z,61.30
2023-01-11T22:56:17.195Z,61.39
2023-01-11T22:58:30.817Z,61.42
2023-01-11T23:00:43.926Z,61.20
2023-01-11T23:02:59.278Z,61.13
2023-01-11T23:05:13.439Z,61.00
2023-01-11T23:07:28.143Z,61.28
2023-01-11T23:09:41.600Z,61.03
2023-01-11T23:12:11.678Z,60.41
2023-01-11T23:14:29.620Z,60.58
2023-01-11T23:16:43.241Z,61.22
2023-01-11T23:18:57.529Z,60.88
2023-01-11T23:21:11.459Z,61.35
2023-01-11T23:23:25.284Z,61.49
2023-01-11T23:25:38.608Z,61.36
2023-01-11T23:27:51.645Z,61.54
2023-01-11T23:30:04.867Z,61.78
2023-01-11T23:32:18.418Z,61.97
2023-01-11T23:34:32.000Z,62.43
2023-01-11T23:36:46.292Z,62.56
2023-01-11T23:39:00.316Z,63.15
2023-01-11T23:41:33.561Z,63.27
2023-01-11T23:43:47.493Z,63.52
2023-01-11T23:46:21.134Z,63.28
2023-01-11T23:48:35.022Z,63.61
2023-01-11T23:50:49.765Z,63.80
2023-01-11T23:53:03.301Z,64.18
2023-01-11T23:55:16.902Z,64.24
2023-01-11T23:57:33.670Z,64.34
2023-01-11T23:59:47.489Z,64.13
